<?xml version="1.0" encoding="UTF-8" standalone="no" ?>
<gpx xmlns="http://www.topografix.com/GPX/1/1" xmlns:xsi="http://www.w3.org/2001/XMLSchema-instance" xsi:schemaLocation="http://www.topografix.com/GPX/1/1 http://www.topografix.com/GPX/1/1/gpx.xsd" version="1.1" creator="VisuGPX - https://www.visugpx.com">
  <metadata>
    <name>83 - L - Artignosc</name>
    <desc><![CDATA[83 - L - Artignosc - St Laurent du Verdon ]]></desc>
  </metadata>
  <wpt lat="43.71707" lon="6.08807">
    <ele>470</ele>
    <name><![CDATA[]]></name>
    <type><![CDATA[GENERIC]]></type>
  </wpt>
  <wpt lat="43.71711" lon="6.08805">
    <ele>512</ele>
    <name><![CDATA[]]></name>
    <type><![CDATA[GENERIC]]></type>
  </wpt>
  <trk>
    <name><![CDATA[Randonnée du 07/04/2025 à 09:04]]></name>
    <trkseg>
      <trkpt lat="43.71711" lon="6.08805">
        <ele>512</ele>
        <time>2025-04-07T07:04:06.000Z</time>
      </trkpt>
      <trkpt lat="43.71715" lon="6.08808">
        <ele>512</ele>
        <time>2025-04-07T07:04:08.000Z</time>
      </trkpt>
      <trkpt lat="43.71711" lon="6.08791">
        <ele>471</ele>
        <time>2025-04-07T07:09:22.000Z</time>
      </trkpt>
      <trkpt lat="43.71718" lon="6.0881">
        <ele>473</ele>
        <time>2025-04-07T07:13:50.000Z</time>
      </trkpt>
      <trkpt lat="43.71704" lon="6.08829">
        <ele>481</ele>
        <time>2025-04-07T07:14:50.000Z</time>
      </trkpt>
      <trkpt lat="43.71683" lon="6.08841">
        <ele>476</ele>
        <time>2025-04-07T07:15:38.000Z</time>
      </trkpt>
      <trkpt lat="43.71665" lon="6.0884">
        <ele>472</ele>
        <time>2025-04-07T07:16:04.000Z</time>
      </trkpt>
      <trkpt lat="43.71671" lon="6.08814">
        <ele>472</ele>
        <time>2025-04-07T07:16:36.000Z</time>
      </trkpt>
      <trkpt lat="43.71684" lon="6.08787">
        <ele>472</ele>
        <time>2025-04-07T07:17:00.000Z</time>
      </trkpt>
      <trkpt lat="43.71699" lon="6.08762">
        <ele>471</ele>
        <time>2025-04-07T07:17:24.000Z</time>
      </trkpt>
      <trkpt lat="43.71718" lon="6.08743">
        <ele>470</ele>
        <time>2025-04-07T07:17:48.000Z</time>
      </trkpt>
      <trkpt lat="43.71737" lon="6.08723">
        <ele>470</ele>
        <time>2025-04-07T07:18:32.000Z</time>
      </trkpt>
      <trkpt lat="43.71755" lon="6.08703">
        <ele>470</ele>
        <time>2025-04-07T07:18:58.000Z</time>
      </trkpt>
      <trkpt lat="43.7177" lon="6.08679">
        <ele>470</ele>
        <time>2025-04-07T07:19:52.000Z</time>
      </trkpt>
      <trkpt lat="43.71783" lon="6.08655">
        <ele>470</ele>
        <time>2025-04-07T07:20:14.000Z</time>
      </trkpt>
      <trkpt lat="43.71782" lon="6.08625">
        <ele>470</ele>
        <time>2025-04-07T07:20:50.000Z</time>
      </trkpt>
      <trkpt lat="43.71768" lon="6.08603">
        <ele>469</ele>
        <time>2025-04-07T07:22:28.000Z</time>
      </trkpt>
      <trkpt lat="43.7175" lon="6.08582">
        <ele>468</ele>
        <time>2025-04-07T07:22:54.000Z</time>
      </trkpt>
      <trkpt lat="43.71733" lon="6.08562">
        <ele>468</ele>
        <time>2025-04-07T07:23:26.000Z</time>
      </trkpt>
      <trkpt lat="43.71715" lon="6.08545">
        <ele>468</ele>
        <time>2025-04-07T07:24:06.000Z</time>
      </trkpt>
      <trkpt lat="43.71702" lon="6.0852">
        <ele>467</ele>
        <time>2025-04-07T07:24:46.000Z</time>
      </trkpt>
      <trkpt lat="43.71694" lon="6.08491">
        <ele>467</ele>
        <time>2025-04-07T07:26:16.000Z</time>
      </trkpt>
      <trkpt lat="43.71685" lon="6.08463">
        <ele>468</ele>
        <time>2025-04-07T07:26:44.000Z</time>
      </trkpt>
      <trkpt lat="43.71667" lon="6.08446">
        <ele>467</ele>
        <time>2025-04-07T07:27:10.000Z</time>
      </trkpt>
      <trkpt lat="43.71647" lon="6.08429">
        <ele>467</ele>
        <time>2025-04-07T07:27:52.000Z</time>
      </trkpt>
      <trkpt lat="43.71629" lon="6.08413">
        <ele>467</ele>
        <time>2025-04-07T07:28:22.000Z</time>
      </trkpt>
      <trkpt lat="43.71611" lon="6.08394">
        <ele>466</ele>
        <time>2025-04-07T07:28:54.000Z</time>
      </trkpt>
      <trkpt lat="43.71602" lon="6.08367">
        <ele>466</ele>
        <time>2025-04-07T07:29:34.000Z</time>
      </trkpt>
      <trkpt lat="43.71588" lon="6.08343">
        <ele>465</ele>
        <time>2025-04-07T07:30:02.000Z</time>
      </trkpt>
      <trkpt lat="43.71574" lon="6.08318">
        <ele>465</ele>
        <time>2025-04-07T07:33:06.000Z</time>
      </trkpt>
      <trkpt lat="43.71565" lon="6.0829">
        <ele>464</ele>
        <time>2025-04-07T07:33:34.000Z</time>
      </trkpt>
      <trkpt lat="43.71551" lon="6.08264">
        <ele>464</ele>
        <time>2025-04-07T07:34:08.000Z</time>
      </trkpt>
      <trkpt lat="43.71532" lon="6.08247">
        <ele>464</ele>
        <time>2025-04-07T07:34:40.000Z</time>
      </trkpt>
      <trkpt lat="43.71511" lon="6.08238">
        <ele>464</ele>
        <time>2025-04-07T07:35:08.000Z</time>
      </trkpt>
      <trkpt lat="43.71495" lon="6.08218">
        <ele>465</ele>
        <time>2025-04-07T07:35:36.000Z</time>
      </trkpt>
      <trkpt lat="43.71482" lon="6.08191">
        <ele>466</ele>
        <time>2025-04-07T07:36:12.000Z</time>
      </trkpt>
      <trkpt lat="43.71474" lon="6.08163">
        <ele>467</ele>
        <time>2025-04-07T07:36:38.000Z</time>
      </trkpt>
      <trkpt lat="43.71465" lon="6.08134">
        <ele>467</ele>
        <time>2025-04-07T07:37:08.000Z</time>
      </trkpt>
      <trkpt lat="43.71454" lon="6.08106">
        <ele>468</ele>
        <time>2025-04-07T07:39:30.000Z</time>
      </trkpt>
      <trkpt lat="43.71438" lon="6.08084">
        <ele>468</ele>
        <time>2025-04-07T07:40:06.000Z</time>
      </trkpt>
      <trkpt lat="43.71417" lon="6.08078">
        <ele>468</ele>
        <time>2025-04-07T07:40:36.000Z</time>
      </trkpt>
      <trkpt lat="43.71396" lon="6.08069">
        <ele>468</ele>
        <time>2025-04-07T07:41:02.000Z</time>
      </trkpt>
      <trkpt lat="43.71378" lon="6.0805">
        <ele>468</ele>
        <time>2025-04-07T07:41:36.000Z</time>
      </trkpt>
      <trkpt lat="43.71357" lon="6.08043">
        <ele>468</ele>
        <time>2025-04-07T07:42:06.000Z</time>
      </trkpt>
      <trkpt lat="43.71335" lon="6.08037">
        <ele>468</ele>
        <time>2025-04-07T07:42:32.000Z</time>
      </trkpt>
      <trkpt lat="43.71314" lon="6.08024">
        <ele>468</ele>
        <time>2025-04-07T07:43:02.000Z</time>
      </trkpt>
      <trkpt lat="43.71295" lon="6.08008">
        <ele>468</ele>
        <time>2025-04-07T07:43:26.000Z</time>
      </trkpt>
      <trkpt lat="43.71283" lon="6.07983">
        <ele>467</ele>
        <time>2025-04-07T07:43:54.000Z</time>
      </trkpt>
      <trkpt lat="43.71282" lon="6.07952">
        <ele>466</ele>
        <time>2025-04-07T07:44:28.000Z</time>
      </trkpt>
      <trkpt lat="43.71289" lon="6.07923">
        <ele>465</ele>
        <time>2025-04-07T07:45:02.000Z</time>
      </trkpt>
      <trkpt lat="43.71304" lon="6.079">
        <ele>465</ele>
        <time>2025-04-07T07:45:34.000Z</time>
      </trkpt>
      <trkpt lat="43.7132" lon="6.07879">
        <ele>465</ele>
        <time>2025-04-07T07:46:02.000Z</time>
      </trkpt>
      <trkpt lat="43.7133" lon="6.07856">
        <ele>465</ele>
        <time>2025-04-07T07:46:36.000Z</time>
      </trkpt>
      <trkpt lat="43.71315" lon="6.07839">
        <ele>466</ele>
        <time>2025-04-07T07:47:14.000Z</time>
      </trkpt>
      <trkpt lat="43.71296" lon="6.07824">
        <ele>468</ele>
        <time>2025-04-07T07:47:44.000Z</time>
      </trkpt>
      <trkpt lat="43.71289" lon="6.07795">
        <ele>470</ele>
        <time>2025-04-07T07:48:44.000Z</time>
      </trkpt>
      <trkpt lat="43.71276" lon="6.0777">
        <ele>472</ele>
        <time>2025-04-07T07:49:20.000Z</time>
      </trkpt>
      <trkpt lat="43.71264" lon="6.07745">
        <ele>474</ele>
        <time>2025-04-07T07:50:04.000Z</time>
      </trkpt>
      <trkpt lat="43.71256" lon="6.07717">
        <ele>477</ele>
        <time>2025-04-07T07:50:46.000Z</time>
      </trkpt>
      <trkpt lat="43.71245" lon="6.07689">
        <ele>480</ele>
        <time>2025-04-07T07:51:20.000Z</time>
      </trkpt>
      <trkpt lat="43.71234" lon="6.07663">
        <ele>483</ele>
        <time>2025-04-07T07:51:54.000Z</time>
      </trkpt>
      <trkpt lat="43.71222" lon="6.07636">
        <ele>486</ele>
        <time>2025-04-07T07:52:36.000Z</time>
      </trkpt>
      <trkpt lat="43.71208" lon="6.07612">
        <ele>489</ele>
        <time>2025-04-07T07:53:16.000Z</time>
      </trkpt>
      <trkpt lat="43.71196" lon="6.07585">
        <ele>492</ele>
        <time>2025-04-07T07:53:58.000Z</time>
      </trkpt>
      <trkpt lat="43.71184" lon="6.0756">
        <ele>496</ele>
        <time>2025-04-07T07:54:44.000Z</time>
      </trkpt>
      <trkpt lat="43.7117" lon="6.07536">
        <ele>499</ele>
        <time>2025-04-07T07:55:32.000Z</time>
      </trkpt>
      <trkpt lat="43.71157" lon="6.07512">
        <ele>502</ele>
        <time>2025-04-07T07:56:30.000Z</time>
      </trkpt>
      <trkpt lat="43.71154" lon="6.07484">
        <ele>506</ele>
        <time>2025-04-07T07:57:04.000Z</time>
      </trkpt>
      <trkpt lat="43.7114" lon="6.07461">
        <ele>508</ele>
        <time>2025-04-07T07:58:02.000Z</time>
      </trkpt>
      <trkpt lat="43.71132" lon="6.07432">
        <ele>510</ele>
        <time>2025-04-07T07:58:42.000Z</time>
      </trkpt>
      <trkpt lat="43.71123" lon="6.07404">
        <ele>512</ele>
        <time>2025-04-07T07:59:14.000Z</time>
      </trkpt>
      <trkpt lat="43.71112" lon="6.07376">
        <ele>514</ele>
        <time>2025-04-07T08:05:36.000Z</time>
      </trkpt>
      <trkpt lat="43.71102" lon="6.07349">
        <ele>516</ele>
        <time>2025-04-07T08:06:22.000Z</time>
      </trkpt>
      <trkpt lat="43.71094" lon="6.07321">
        <ele>518</ele>
        <time>2025-04-07T08:06:56.000Z</time>
      </trkpt>
      <trkpt lat="43.71103" lon="6.07295">
        <ele>519</ele>
        <time>2025-04-07T08:10:34.000Z</time>
      </trkpt>
      <trkpt lat="43.71123" lon="6.0728">
        <ele>520</ele>
        <time>2025-04-07T08:11:00.000Z</time>
      </trkpt>
      <trkpt lat="43.71144" lon="6.07265">
        <ele>521</ele>
        <time>2025-04-07T08:11:30.000Z</time>
      </trkpt>
      <trkpt lat="43.71166" lon="6.07252">
        <ele>522</ele>
        <time>2025-04-07T08:11:57.000Z</time>
      </trkpt>
      <trkpt lat="43.71188" lon="6.07243">
        <ele>523</ele>
        <time>2025-04-07T08:12:25.000Z</time>
      </trkpt>
      <trkpt lat="43.71207" lon="6.07234">
        <ele>523</ele>
        <time>2025-04-07T08:12:55.000Z</time>
      </trkpt>
      <trkpt lat="43.71203" lon="6.07208">
        <ele>522</ele>
        <time>2025-04-07T08:13:41.000Z</time>
      </trkpt>
      <trkpt lat="43.71194" lon="6.07181">
        <ele>522</ele>
        <time>2025-04-07T08:14:13.000Z</time>
      </trkpt>
      <trkpt lat="43.71193" lon="6.07151">
        <ele>521</ele>
        <time>2025-04-07T08:14:47.000Z</time>
      </trkpt>
      <trkpt lat="43.71189" lon="6.0712">
        <ele>521</ele>
        <time>2025-04-07T08:15:15.000Z</time>
      </trkpt>
      <trkpt lat="43.71194" lon="6.07091">
        <ele>521</ele>
        <time>2025-04-07T08:16:43.000Z</time>
      </trkpt>
      <trkpt lat="43.71211" lon="6.07071">
        <ele>522</ele>
        <time>2025-04-07T08:17:19.000Z</time>
      </trkpt>
      <trkpt lat="43.71227" lon="6.0705">
        <ele>523</ele>
        <time>2025-04-07T08:17:51.000Z</time>
      </trkpt>
      <trkpt lat="43.71243" lon="6.07028">
        <ele>525</ele>
        <time>2025-04-07T08:18:51.000Z</time>
      </trkpt>
      <trkpt lat="43.71257" lon="6.07004">
        <ele>527</ele>
        <time>2025-04-07T08:19:23.000Z</time>
      </trkpt>
      <trkpt lat="43.71269" lon="6.06977">
        <ele>528</ele>
        <time>2025-04-07T08:20:03.000Z</time>
      </trkpt>
      <trkpt lat="43.71279" lon="6.06949">
        <ele>529</ele>
        <time>2025-04-07T08:20:39.000Z</time>
      </trkpt>
      <trkpt lat="43.71289" lon="6.06921">
        <ele>529</ele>
        <time>2025-04-07T08:21:17.000Z</time>
      </trkpt>
      <trkpt lat="43.71303" lon="6.06898">
        <ele>529</ele>
        <time>2025-04-07T08:25:19.000Z</time>
      </trkpt>
      <trkpt lat="43.71313" lon="6.06871">
        <ele>528</ele>
        <time>2025-04-07T08:29:43.000Z</time>
      </trkpt>
      <trkpt lat="43.71323" lon="6.06843">
        <ele>528</ele>
        <time>2025-04-07T08:30:11.000Z</time>
      </trkpt>
      <trkpt lat="43.71335" lon="6.06816">
        <ele>527</ele>
        <time>2025-04-07T08:30:41.000Z</time>
      </trkpt>
      <trkpt lat="43.71347" lon="6.06789">
        <ele>526</ele>
        <time>2025-04-07T08:31:11.000Z</time>
      </trkpt>
      <trkpt lat="43.71355" lon="6.06759">
        <ele>525</ele>
        <time>2025-04-07T08:31:35.000Z</time>
      </trkpt>
      <trkpt lat="43.71372" lon="6.06738">
        <ele>524</ele>
        <time>2025-04-07T08:32:05.000Z</time>
      </trkpt>
      <trkpt lat="43.71393" lon="6.06728">
        <ele>523</ele>
        <time>2025-04-07T08:32:35.000Z</time>
      </trkpt>
      <trkpt lat="43.71416" lon="6.06728">
        <ele>523</ele>
        <time>2025-04-07T08:33:07.000Z</time>
      </trkpt>
      <trkpt lat="43.71439" lon="6.06732">
        <ele>522</ele>
        <time>2025-04-07T08:36:05.000Z</time>
      </trkpt>
      <trkpt lat="43.7146" lon="6.06746">
        <ele>522</ele>
        <time>2025-04-07T08:36:29.000Z</time>
      </trkpt>
      <trkpt lat="43.71482" lon="6.0676">
        <ele>522</ele>
        <time>2025-04-07T08:36:57.000Z</time>
      </trkpt>
      <trkpt lat="43.71503" lon="6.06769">
        <ele>521</ele>
        <time>2025-04-07T08:37:21.000Z</time>
      </trkpt>
      <trkpt lat="43.71525" lon="6.06779">
        <ele>521</ele>
        <time>2025-04-07T08:37:45.000Z</time>
      </trkpt>
      <trkpt lat="43.71546" lon="6.0679">
        <ele>520</ele>
        <time>2025-04-07T08:38:11.000Z</time>
      </trkpt>
      <trkpt lat="43.71568" lon="6.06801">
        <ele>519</ele>
        <time>2025-04-07T08:38:37.000Z</time>
      </trkpt>
      <trkpt lat="43.71591" lon="6.06808">
        <ele>518</ele>
        <time>2025-04-07T08:39:05.000Z</time>
      </trkpt>
      <trkpt lat="43.71614" lon="6.06813">
        <ele>517</ele>
        <time>2025-04-07T08:39:29.000Z</time>
      </trkpt>
      <trkpt lat="43.71637" lon="6.06819">
        <ele>516</ele>
        <time>2025-04-07T08:39:53.000Z</time>
      </trkpt>
      <trkpt lat="43.71659" lon="6.06821">
        <ele>514</ele>
        <time>2025-04-07T08:40:23.000Z</time>
      </trkpt>
      <trkpt lat="43.71681" lon="6.06827">
        <ele>514</ele>
        <time>2025-04-07T08:40:43.000Z</time>
      </trkpt>
      <trkpt lat="43.71703" lon="6.06838">
        <ele>513</ele>
        <time>2025-04-07T08:41:07.000Z</time>
      </trkpt>
      <trkpt lat="43.71725" lon="6.06842">
        <ele>512</ele>
        <time>2025-04-07T08:41:35.000Z</time>
      </trkpt>
      <trkpt lat="43.71748" lon="6.0684">
        <ele>510</ele>
        <time>2025-04-07T08:42:01.000Z</time>
      </trkpt>
      <trkpt lat="43.7177" lon="6.06845">
        <ele>509</ele>
        <time>2025-04-07T08:48:43.000Z</time>
      </trkpt>
      <trkpt lat="43.71792" lon="6.06844">
        <ele>508</ele>
        <time>2025-04-07T08:49:15.000Z</time>
      </trkpt>
      <trkpt lat="43.71815" lon="6.06837">
        <ele>508</ele>
        <time>2025-04-07T08:49:45.000Z</time>
      </trkpt>
      <trkpt lat="43.71838" lon="6.06829">
        <ele>508</ele>
        <time>2025-04-07T08:50:11.000Z</time>
      </trkpt>
      <trkpt lat="43.7186" lon="6.06821">
        <ele>507</ele>
        <time>2025-04-07T08:50:41.000Z</time>
      </trkpt>
      <trkpt lat="43.71882" lon="6.06813">
        <ele>507</ele>
        <time>2025-04-07T08:51:09.000Z</time>
      </trkpt>
      <trkpt lat="43.71904" lon="6.06805">
        <ele>507</ele>
        <time>2025-04-07T08:53:05.000Z</time>
      </trkpt>
      <trkpt lat="43.71926" lon="6.06798">
        <ele>507</ele>
        <time>2025-04-07T08:53:35.000Z</time>
      </trkpt>
      <trkpt lat="43.71948" lon="6.0679">
        <ele>507</ele>
        <time>2025-04-07T08:54:03.000Z</time>
      </trkpt>
      <trkpt lat="43.7197" lon="6.06785">
        <ele>507</ele>
        <time>2025-04-07T08:54:27.000Z</time>
      </trkpt>
      <trkpt lat="43.71993" lon="6.06781">
        <ele>507</ele>
        <time>2025-04-07T08:54:51.000Z</time>
      </trkpt>
      <trkpt lat="43.72015" lon="6.06776">
        <ele>508</ele>
        <time>2025-04-07T08:55:15.000Z</time>
      </trkpt>
      <trkpt lat="43.72038" lon="6.0677">
        <ele>509</ele>
        <time>2025-04-07T08:55:45.000Z</time>
      </trkpt>
      <trkpt lat="43.7206" lon="6.06771">
        <ele>509</ele>
        <time>2025-04-07T08:56:09.000Z</time>
      </trkpt>
      <trkpt lat="43.72081" lon="6.06769">
        <ele>511</ele>
        <time>2025-04-07T08:56:59.000Z</time>
      </trkpt>
      <trkpt lat="43.721" lon="6.06753">
        <ele>512</ele>
        <time>2025-04-07T08:58:39.000Z</time>
      </trkpt>
      <trkpt lat="43.7212" lon="6.06736">
        <ele>514</ele>
        <time>2025-04-07T08:59:05.000Z</time>
      </trkpt>
      <trkpt lat="43.7214" lon="6.0672">
        <ele>515</ele>
        <time>2025-04-07T08:59:32.000Z</time>
      </trkpt>
      <trkpt lat="43.72162" lon="6.06707">
        <ele>517</ele>
        <time>2025-04-07T09:00:00.000Z</time>
      </trkpt>
      <trkpt lat="43.72183" lon="6.06696">
        <ele>518</ele>
        <time>2025-04-07T09:00:45.000Z</time>
      </trkpt>
      <trkpt lat="43.72205" lon="6.06685">
        <ele>519</ele>
        <time>2025-04-07T09:01:09.000Z</time>
      </trkpt>
      <trkpt lat="43.72226" lon="6.06675">
        <ele>520</ele>
        <time>2025-04-07T09:01:45.000Z</time>
      </trkpt>
      <trkpt lat="43.72248" lon="6.06661">
        <ele>521</ele>
        <time>2025-04-07T09:02:13.000Z</time>
      </trkpt>
      <trkpt lat="43.7227" lon="6.06653">
        <ele>521</ele>
        <time>2025-04-07T09:02:37.000Z</time>
      </trkpt>
      <trkpt lat="43.72291" lon="6.06658">
        <ele>521</ele>
        <time>2025-04-07T09:03:39.000Z</time>
      </trkpt>
      <trkpt lat="43.72309" lon="6.06676">
        <ele>521</ele>
        <time>2025-04-07T09:04:27.000Z</time>
      </trkpt>
      <trkpt lat="43.72329" lon="6.06693">
        <ele>521</ele>
        <time>2025-04-07T09:04:49.000Z</time>
      </trkpt>
      <trkpt lat="43.72348" lon="6.0671">
        <ele>521</ele>
        <time>2025-04-07T09:05:15.000Z</time>
      </trkpt>
      <trkpt lat="43.72368" lon="6.06726">
        <ele>520</ele>
        <time>2025-04-07T09:05:39.000Z</time>
      </trkpt>
      <trkpt lat="43.72389" lon="6.06741">
        <ele>519</ele>
        <time>2025-04-07T09:06:25.000Z</time>
      </trkpt>
      <trkpt lat="43.72407" lon="6.06759">
        <ele>518</ele>
        <time>2025-04-07T09:06:51.000Z</time>
      </trkpt>
      <trkpt lat="43.72422" lon="6.06782">
        <ele>518</ele>
        <time>2025-04-07T09:08:23.000Z</time>
      </trkpt>
      <trkpt lat="43.72436" lon="6.06801">
        <ele>518</ele>
        <time>2025-04-07T09:08:45.000Z</time>
      </trkpt>
      <trkpt lat="43.72426" lon="6.06825">
        <ele>518</ele>
        <time>2025-04-07T09:09:55.000Z</time>
      </trkpt>
      <trkpt lat="43.72418" lon="6.06851">
        <ele>519</ele>
        <time>2025-04-07T09:10:33.000Z</time>
      </trkpt>
      <trkpt lat="43.72434" lon="6.0687">
        <ele>520</ele>
        <time>2025-04-07T09:15:21.000Z</time>
      </trkpt>
      <trkpt lat="43.72457" lon="6.06879">
        <ele>519</ele>
        <time>2025-04-07T09:16:27.000Z</time>
      </trkpt>
      <trkpt lat="43.72478" lon="6.06894">
        <ele>519</ele>
        <time>2025-04-07T09:16:51.000Z</time>
      </trkpt>
      <trkpt lat="43.72493" lon="6.06916">
        <ele>518</ele>
        <time>2025-04-07T09:18:09.000Z</time>
      </trkpt>
      <trkpt lat="43.72508" lon="6.06941">
        <ele>517</ele>
        <time>2025-04-07T09:21:35.000Z</time>
      </trkpt>
      <trkpt lat="43.72525" lon="6.06963">
        <ele>517</ele>
        <time>2025-04-07T09:21:55.000Z</time>
      </trkpt>
      <trkpt lat="43.72542" lon="6.06984">
        <ele>516</ele>
        <time>2025-04-07T09:22:14.000Z</time>
      </trkpt>
      <trkpt lat="43.72558" lon="6.07006">
        <ele>515</ele>
        <time>2025-04-07T09:22:36.000Z</time>
      </trkpt>
      <trkpt lat="43.72575" lon="6.07026">
        <ele>514</ele>
        <time>2025-04-07T09:22:56.000Z</time>
      </trkpt>
      <trkpt lat="43.72584" lon="6.07054">
        <ele>512</ele>
        <time>2025-04-07T09:23:34.000Z</time>
      </trkpt>
      <trkpt lat="43.72578" lon="6.07083">
        <ele>511</ele>
        <time>2025-04-07T09:23:56.000Z</time>
      </trkpt>
      <trkpt lat="43.72571" lon="6.07113">
        <ele>510</ele>
        <time>2025-04-07T09:24:20.000Z</time>
      </trkpt>
      <trkpt lat="43.72563" lon="6.07143">
        <ele>508</ele>
        <time>2025-04-07T09:24:42.000Z</time>
      </trkpt>
      <trkpt lat="43.7255" lon="6.0717">
        <ele>507</ele>
        <time>2025-04-07T09:25:06.000Z</time>
      </trkpt>
      <trkpt lat="43.72534" lon="6.07194">
        <ele>506</ele>
        <time>2025-04-07T09:25:52.000Z</time>
      </trkpt>
      <trkpt lat="43.72518" lon="6.07217">
        <ele>505</ele>
        <time>2025-04-07T09:26:16.000Z</time>
      </trkpt>
      <trkpt lat="43.72503" lon="6.07241">
        <ele>504</ele>
        <time>2025-04-07T09:26:38.000Z</time>
      </trkpt>
      <trkpt lat="43.72488" lon="6.07265">
        <ele>503</ele>
        <time>2025-04-07T09:27:04.000Z</time>
      </trkpt>
      <trkpt lat="43.72478" lon="6.07293">
        <ele>502</ele>
        <time>2025-04-07T09:27:30.000Z</time>
      </trkpt>
      <trkpt lat="43.72469" lon="6.07322">
        <ele>501</ele>
        <time>2025-04-07T09:27:52.000Z</time>
      </trkpt>
      <trkpt lat="43.7246" lon="6.07352">
        <ele>500</ele>
        <time>2025-04-07T09:28:12.000Z</time>
      </trkpt>
      <trkpt lat="43.72452" lon="6.07383">
        <ele>499</ele>
        <time>2025-04-07T09:28:36.000Z</time>
      </trkpt>
      <trkpt lat="43.72446" lon="6.07415">
        <ele>499</ele>
        <time>2025-04-07T09:29:00.000Z</time>
      </trkpt>
      <trkpt lat="43.72441" lon="6.07446">
        <ele>498</ele>
        <time>2025-04-07T09:29:22.000Z</time>
      </trkpt>
      <trkpt lat="43.72438" lon="6.07478">
        <ele>497</ele>
        <time>2025-04-07T09:29:46.000Z</time>
      </trkpt>
      <trkpt lat="43.72433" lon="6.07508">
        <ele>496</ele>
        <time>2025-04-07T09:30:10.000Z</time>
      </trkpt>
      <trkpt lat="43.72427" lon="6.07539">
        <ele>495</ele>
        <time>2025-04-07T09:30:32.000Z</time>
      </trkpt>
      <trkpt lat="43.72419" lon="6.0757">
        <ele>493</ele>
        <time>2025-04-07T09:31:06.000Z</time>
      </trkpt>
      <trkpt lat="43.7241" lon="6.07598">
        <ele>492</ele>
        <time>2025-04-07T09:31:28.000Z</time>
      </trkpt>
      <trkpt lat="43.72402" lon="6.07627">
        <ele>491</ele>
        <time>2025-04-07T09:31:52.000Z</time>
      </trkpt>
      <trkpt lat="43.72394" lon="6.07656">
        <ele>490</ele>
        <time>2025-04-07T09:32:16.000Z</time>
      </trkpt>
      <trkpt lat="43.72385" lon="6.07685">
        <ele>489</ele>
        <time>2025-04-07T09:32:40.000Z</time>
      </trkpt>
      <trkpt lat="43.72376" lon="6.07715">
        <ele>488</ele>
        <time>2025-04-07T09:33:06.000Z</time>
      </trkpt>
      <trkpt lat="43.72365" lon="6.07743">
        <ele>487</ele>
        <time>2025-04-07T09:33:32.000Z</time>
      </trkpt>
      <trkpt lat="43.72353" lon="6.0777">
        <ele>487</ele>
        <time>2025-04-07T09:33:54.000Z</time>
      </trkpt>
      <trkpt lat="43.7234" lon="6.07796">
        <ele>487</ele>
        <time>2025-04-07T09:34:16.000Z</time>
      </trkpt>
      <trkpt lat="43.72332" lon="6.0782">
        <ele>486</ele>
        <time>2025-04-07T09:34:46.000Z</time>
      </trkpt>
      <trkpt lat="43.7235" lon="6.07827">
        <ele>486</ele>
        <time>2025-04-07T09:37:24.000Z</time>
      </trkpt>
      <trkpt lat="43.72372" lon="6.07823">
        <ele>486</ele>
        <time>2025-04-07T09:38:50.000Z</time>
      </trkpt>
      <trkpt lat="43.72394" lon="6.07828">
        <ele>485</ele>
        <time>2025-04-07T09:39:16.000Z</time>
      </trkpt>
      <trkpt lat="43.72416" lon="6.07826">
        <ele>485</ele>
        <time>2025-04-07T09:39:38.000Z</time>
      </trkpt>
      <trkpt lat="43.72438" lon="6.07827">
        <ele>484</ele>
        <time>2025-04-07T09:39:58.000Z</time>
      </trkpt>
      <trkpt lat="43.72457" lon="6.07843">
        <ele>484</ele>
        <time>2025-04-07T09:40:20.000Z</time>
      </trkpt>
      <trkpt lat="43.72474" lon="6.07863">
        <ele>483</ele>
        <time>2025-04-07T09:40:42.000Z</time>
      </trkpt>
      <trkpt lat="43.7249" lon="6.07886">
        <ele>483</ele>
        <time>2025-04-07T09:41:06.000Z</time>
      </trkpt>
      <trkpt lat="43.72507" lon="6.07907">
        <ele>483</ele>
        <time>2025-04-07T09:41:30.000Z</time>
      </trkpt>
      <trkpt lat="43.72523" lon="6.07929">
        <ele>483</ele>
        <time>2025-04-07T09:41:54.000Z</time>
      </trkpt>
      <trkpt lat="43.7254" lon="6.07952">
        <ele>483</ele>
        <time>2025-04-07T09:42:20.000Z</time>
      </trkpt>
      <trkpt lat="43.72558" lon="6.07974">
        <ele>483</ele>
        <time>2025-04-07T09:42:44.000Z</time>
      </trkpt>
      <trkpt lat="43.72577" lon="6.07994">
        <ele>483</ele>
        <time>2025-04-07T09:43:12.000Z</time>
      </trkpt>
      <trkpt lat="43.72596" lon="6.08011">
        <ele>483</ele>
        <time>2025-04-07T09:43:34.000Z</time>
      </trkpt>
      <trkpt lat="43.72616" lon="6.08027">
        <ele>484</ele>
        <time>2025-04-07T09:43:56.000Z</time>
      </trkpt>
      <trkpt lat="43.72635" lon="6.08043">
        <ele>485</ele>
        <time>2025-04-07T09:44:24.000Z</time>
      </trkpt>
      <trkpt lat="43.72656" lon="6.08058">
        <ele>485</ele>
        <time>2025-04-07T09:44:48.000Z</time>
      </trkpt>
      <trkpt lat="43.72679" lon="6.08066">
        <ele>486</ele>
        <time>2025-04-07T09:45:14.000Z</time>
      </trkpt>
      <trkpt lat="43.72701" lon="6.08068">
        <ele>486</ele>
        <time>2025-04-07T09:45:40.000Z</time>
      </trkpt>
      <trkpt lat="43.72725" lon="6.08068">
        <ele>486</ele>
        <time>2025-04-07T09:46:06.000Z</time>
      </trkpt>
      <trkpt lat="43.72747" lon="6.08063">
        <ele>486</ele>
        <time>2025-04-07T09:46:30.000Z</time>
      </trkpt>
      <trkpt lat="43.72769" lon="6.08057">
        <ele>486</ele>
        <time>2025-04-07T09:46:58.000Z</time>
      </trkpt>
      <trkpt lat="43.72788" lon="6.08041">
        <ele>486</ele>
        <time>2025-04-07T09:49:34.000Z</time>
      </trkpt>
      <trkpt lat="43.72805" lon="6.08019">
        <ele>486</ele>
        <time>2025-04-07T09:49:58.000Z</time>
      </trkpt>
      <trkpt lat="43.72822" lon="6.07997">
        <ele>486</ele>
        <time>2025-04-07T09:50:20.000Z</time>
      </trkpt>
      <trkpt lat="43.72841" lon="6.0798">
        <ele>486</ele>
        <time>2025-04-07T09:50:40.000Z</time>
      </trkpt>
      <trkpt lat="43.72861" lon="6.07964">
        <ele>486</ele>
        <time>2025-04-07T09:51:08.000Z</time>
      </trkpt>
      <trkpt lat="43.72878" lon="6.07944">
        <ele>486</ele>
        <time>2025-04-07T09:51:32.000Z</time>
      </trkpt>
      <trkpt lat="43.72891" lon="6.0792">
        <ele>486</ele>
        <time>2025-04-07T09:51:56.000Z</time>
      </trkpt>
      <trkpt lat="43.729" lon="6.07892">
        <ele>486</ele>
        <time>2025-04-07T09:52:20.000Z</time>
      </trkpt>
      <trkpt lat="43.72917" lon="6.07875">
        <ele>485</ele>
        <time>2025-04-07T09:52:44.000Z</time>
      </trkpt>
      <trkpt lat="43.72939" lon="6.07865">
        <ele>484</ele>
        <time>2025-04-07T09:53:10.000Z</time>
      </trkpt>
      <trkpt lat="43.72961" lon="6.07873">
        <ele>482</ele>
        <time>2025-04-07T09:54:38.000Z</time>
      </trkpt>
      <trkpt lat="43.72983" lon="6.0788">
        <ele>480</ele>
        <time>2025-04-07T09:55:09.000Z</time>
      </trkpt>
      <trkpt lat="43.73005" lon="6.0788">
        <ele>478</ele>
        <time>2025-04-07T09:55:55.000Z</time>
      </trkpt>
      <trkpt lat="43.73026" lon="6.0787">
        <ele>476</ele>
        <time>2025-04-07T09:56:33.000Z</time>
      </trkpt>
      <trkpt lat="43.73046" lon="6.0788">
        <ele>475</ele>
        <time>2025-04-07T09:57:11.000Z</time>
      </trkpt>
      <trkpt lat="43.73062" lon="6.07903">
        <ele>473</ele>
        <time>2025-04-07T09:57:37.000Z</time>
      </trkpt>
      <trkpt lat="43.73078" lon="6.07926">
        <ele>472</ele>
        <time>2025-04-07T09:58:19.000Z</time>
      </trkpt>
      <trkpt lat="43.73097" lon="6.07944">
        <ele>470</ele>
        <time>2025-04-07T10:01:07.000Z</time>
      </trkpt>
      <trkpt lat="43.73111" lon="6.07966">
        <ele>468</ele>
        <time>2025-04-07T10:01:35.000Z</time>
      </trkpt>
      <trkpt lat="43.73116" lon="6.07995">
        <ele>466</ele>
        <time>2025-04-07T10:02:09.000Z</time>
      </trkpt>
      <trkpt lat="43.73125" lon="6.08023">
        <ele>465</ele>
        <time>2025-04-07T10:02:35.000Z</time>
      </trkpt>
      <trkpt lat="43.73135" lon="6.08051">
        <ele>463</ele>
        <time>2025-04-07T10:02:57.000Z</time>
      </trkpt>
      <trkpt lat="43.73144" lon="6.08078">
        <ele>461</ele>
        <time>2025-04-07T10:03:21.000Z</time>
      </trkpt>
      <trkpt lat="43.73156" lon="6.08105">
        <ele>460</ele>
        <time>2025-04-07T10:03:45.000Z</time>
      </trkpt>
      <trkpt lat="43.7317" lon="6.08128">
        <ele>459</ele>
        <time>2025-04-07T10:04:09.000Z</time>
      </trkpt>
      <trkpt lat="43.73186" lon="6.08151">
        <ele>458</ele>
        <time>2025-04-07T10:05:17.000Z</time>
      </trkpt>
      <trkpt lat="43.73194" lon="6.0818">
        <ele>457</ele>
        <time>2025-04-07T10:05:43.000Z</time>
      </trkpt>
      <trkpt lat="43.73198" lon="6.08212">
        <ele>458</ele>
        <time>2025-04-07T10:06:07.000Z</time>
      </trkpt>
      <trkpt lat="43.732" lon="6.08245">
        <ele>458</ele>
        <time>2025-04-07T10:06:35.000Z</time>
      </trkpt>
      <trkpt lat="43.73209" lon="6.08274">
        <ele>459</ele>
        <time>2025-04-07T10:06:59.000Z</time>
      </trkpt>
      <trkpt lat="43.7322" lon="6.08303">
        <ele>459</ele>
        <time>2025-04-07T10:07:23.000Z</time>
      </trkpt>
      <trkpt lat="43.73229" lon="6.08331">
        <ele>459</ele>
        <time>2025-04-07T10:07:49.000Z</time>
      </trkpt>
      <trkpt lat="43.73247" lon="6.08346">
        <ele>458</ele>
        <time>2025-04-07T10:08:25.000Z</time>
      </trkpt>
      <trkpt lat="43.73269" lon="6.08344">
        <ele>458</ele>
        <time>2025-04-07T10:08:53.000Z</time>
      </trkpt>
      <trkpt lat="43.73292" lon="6.08346">
        <ele>457</ele>
        <time>2025-04-07T10:09:21.000Z</time>
      </trkpt>
      <trkpt lat="43.73314" lon="6.08352">
        <ele>456</ele>
        <time>2025-04-07T10:09:49.000Z</time>
      </trkpt>
      <trkpt lat="43.73337" lon="6.08358">
        <ele>455</ele>
        <time>2025-04-07T10:10:25.000Z</time>
      </trkpt>
      <trkpt lat="43.73359" lon="6.08365">
        <ele>454</ele>
        <time>2025-04-07T10:10:49.000Z</time>
      </trkpt>
      <trkpt lat="43.73378" lon="6.08382">
        <ele>454</ele>
        <time>2025-04-07T10:11:09.000Z</time>
      </trkpt>
      <trkpt lat="43.73397" lon="6.084">
        <ele>454</ele>
        <time>2025-04-07T10:12:53.000Z</time>
      </trkpt>
      <trkpt lat="43.73419" lon="6.08411">
        <ele>453</ele>
        <time>2025-04-07T10:13:21.000Z</time>
      </trkpt>
      <trkpt lat="43.73441" lon="6.08416">
        <ele>453</ele>
        <time>2025-04-07T11:15:39.000Z</time>
      </trkpt>
      <trkpt lat="43.73464" lon="6.08419">
        <ele>453</ele>
        <time>2025-04-07T11:16:39.000Z</time>
      </trkpt>
      <trkpt lat="43.73486" lon="6.08426">
        <ele>452</ele>
        <time>2025-04-07T11:17:15.000Z</time>
      </trkpt>
      <trkpt lat="43.73503" lon="6.08423">
        <ele>452</ele>
        <time>2025-04-07T11:18:21.000Z</time>
      </trkpt>
      <trkpt lat="43.73487" lon="6.08431">
        <ele>452</ele>
        <time>2025-04-07T11:20:35.000Z</time>
      </trkpt>
      <trkpt lat="43.73467" lon="6.08445">
        <ele>453</ele>
        <time>2025-04-07T11:21:57.000Z</time>
      </trkpt>
      <trkpt lat="43.73446" lon="6.08458">
        <ele>454</ele>
        <time>2025-04-07T11:22:35.000Z</time>
      </trkpt>
      <trkpt lat="43.73425" lon="6.08469">
        <ele>455</ele>
        <time>2025-04-07T11:23:01.000Z</time>
      </trkpt>
      <trkpt lat="43.73402" lon="6.08474">
        <ele>457</ele>
        <time>2025-04-07T11:23:31.000Z</time>
      </trkpt>
      <trkpt lat="43.73381" lon="6.08485">
        <ele>460</ele>
        <time>2025-04-07T11:24:49.000Z</time>
      </trkpt>
      <trkpt lat="43.73361" lon="6.08504">
        <ele>462</ele>
        <time>2025-04-07T11:25:51.000Z</time>
      </trkpt>
      <trkpt lat="43.73343" lon="6.08524">
        <ele>465</ele>
        <time>2025-04-07T11:26:21.000Z</time>
      </trkpt>
      <trkpt lat="43.73324" lon="6.08543">
        <ele>466</ele>
        <time>2025-04-07T11:27:11.000Z</time>
      </trkpt>
      <trkpt lat="43.73307" lon="6.08563">
        <ele>468</ele>
        <time>2025-04-07T11:28:17.000Z</time>
      </trkpt>
      <trkpt lat="43.73294" lon="6.08589">
        <ele>470</ele>
        <time>2025-04-07T11:28:43.000Z</time>
      </trkpt>
      <trkpt lat="43.73279" lon="6.08614">
        <ele>472</ele>
        <time>2025-04-07T11:33:27.000Z</time>
      </trkpt>
      <trkpt lat="43.73267" lon="6.0864">
        <ele>474</ele>
        <time>2025-04-07T11:33:55.000Z</time>
      </trkpt>
      <trkpt lat="43.73263" lon="6.08671">
        <ele>475</ele>
        <time>2025-04-07T11:34:19.000Z</time>
      </trkpt>
      <trkpt lat="43.73256" lon="6.08701">
        <ele>477</ele>
        <time>2025-04-07T11:34:45.000Z</time>
      </trkpt>
      <trkpt lat="43.73246" lon="6.08729">
        <ele>479</ele>
        <time>2025-04-07T11:35:17.000Z</time>
      </trkpt>
      <trkpt lat="43.73228" lon="6.08748">
        <ele>480</ele>
        <time>2025-04-07T11:35:47.000Z</time>
      </trkpt>
      <trkpt lat="43.73207" lon="6.08749">
        <ele>482</ele>
        <time>2025-04-07T11:36:15.000Z</time>
      </trkpt>
      <trkpt lat="43.73184" lon="6.08742">
        <ele>484</ele>
        <time>2025-04-07T11:36:51.000Z</time>
      </trkpt>
      <trkpt lat="43.73162" lon="6.08736">
        <ele>486</ele>
        <time>2025-04-07T11:38:45.000Z</time>
      </trkpt>
      <trkpt lat="43.7314" lon="6.08733">
        <ele>488</ele>
        <time>2025-04-07T11:39:15.000Z</time>
      </trkpt>
      <trkpt lat="43.73118" lon="6.08737">
        <ele>490</ele>
        <time>2025-04-07T11:39:47.000Z</time>
      </trkpt>
      <trkpt lat="43.73096" lon="6.0874">
        <ele>491</ele>
        <time>2025-04-07T11:40:21.000Z</time>
      </trkpt>
      <trkpt lat="43.73073" lon="6.08741">
        <ele>493</ele>
        <time>2025-04-07T11:40:49.000Z</time>
      </trkpt>
      <trkpt lat="43.7305" lon="6.08743">
        <ele>494</ele>
        <time>2025-04-07T11:41:21.000Z</time>
      </trkpt>
      <trkpt lat="43.73031" lon="6.08757">
        <ele>496</ele>
        <time>2025-04-07T11:42:15.000Z</time>
      </trkpt>
      <trkpt lat="43.73007" lon="6.08764">
        <ele>498</ele>
        <time>2025-04-07T11:42:47.000Z</time>
      </trkpt>
      <trkpt lat="43.72984" lon="6.08766">
        <ele>499</ele>
        <time>2025-04-07T11:43:07.000Z</time>
      </trkpt>
      <trkpt lat="43.72963" lon="6.08776">
        <ele>499</ele>
        <time>2025-04-07T11:43:33.000Z</time>
      </trkpt>
      <trkpt lat="43.72947" lon="6.08798">
        <ele>500</ele>
        <time>2025-04-07T11:43:59.000Z</time>
      </trkpt>
      <trkpt lat="43.72932" lon="6.0882">
        <ele>501</ele>
        <time>2025-04-07T11:49:51.000Z</time>
      </trkpt>
      <trkpt lat="43.72913" lon="6.08836">
        <ele>501</ele>
        <time>2025-04-07T11:50:51.000Z</time>
      </trkpt>
      <trkpt lat="43.72893" lon="6.08852">
        <ele>500</ele>
        <time>2025-04-07T11:53:15.000Z</time>
      </trkpt>
      <trkpt lat="43.72873" lon="6.08866">
        <ele>499</ele>
        <time>2025-04-07T11:53:51.000Z</time>
      </trkpt>
      <trkpt lat="43.72855" lon="6.08884">
        <ele>497</ele>
        <time>2025-04-07T11:54:27.000Z</time>
      </trkpt>
      <trkpt lat="43.72841" lon="6.08907">
        <ele>494</ele>
        <time>2025-04-07T11:55:05.000Z</time>
      </trkpt>
      <trkpt lat="43.72838" lon="6.08937">
        <ele>490</ele>
        <time>2025-04-07T11:56:41.000Z</time>
      </trkpt>
      <trkpt lat="43.72839" lon="6.08967">
        <ele>487</ele>
        <time>2025-04-07T12:01:07.000Z</time>
      </trkpt>
      <trkpt lat="43.72827" lon="6.08992">
        <ele>484</ele>
        <time>2025-04-07T12:02:57.000Z</time>
      </trkpt>
      <trkpt lat="43.72813" lon="6.09016">
        <ele>481</ele>
        <time>2025-04-07T12:03:47.000Z</time>
      </trkpt>
      <trkpt lat="43.72799" lon="6.09041">
        <ele>478</ele>
        <time>2025-04-07T12:06:39.000Z</time>
      </trkpt>
      <trkpt lat="43.72781" lon="6.09058">
        <ele>476</ele>
        <time>2025-04-07T12:07:17.000Z</time>
      </trkpt>
      <trkpt lat="43.72766" lon="6.09082">
        <ele>475</ele>
        <time>2025-04-07T12:07:49.000Z</time>
      </trkpt>
      <trkpt lat="43.72749" lon="6.09102">
        <ele>474</ele>
        <time>2025-04-07T12:08:23.000Z</time>
      </trkpt>
      <trkpt lat="43.72728" lon="6.09114">
        <ele>473</ele>
        <time>2025-04-07T12:08:42.000Z</time>
      </trkpt>
      <trkpt lat="43.72707" lon="6.09124">
        <ele>473</ele>
        <time>2025-04-07T12:09:02.000Z</time>
      </trkpt>
      <trkpt lat="43.72685" lon="6.09125">
        <ele>472</ele>
        <time>2025-04-07T12:09:32.000Z</time>
      </trkpt>
      <trkpt lat="43.72662" lon="6.09125">
        <ele>472</ele>
        <time>2025-04-07T12:09:56.000Z</time>
      </trkpt>
      <trkpt lat="43.72639" lon="6.09121">
        <ele>471</ele>
        <time>2025-04-07T12:10:24.000Z</time>
      </trkpt>
      <trkpt lat="43.72615" lon="6.09118">
        <ele>470</ele>
        <time>2025-04-07T12:10:50.000Z</time>
      </trkpt>
      <trkpt lat="43.72593" lon="6.09118">
        <ele>469</ele>
        <time>2025-04-07T12:11:14.000Z</time>
      </trkpt>
      <trkpt lat="43.72571" lon="6.09109">
        <ele>468</ele>
        <time>2025-04-07T12:11:40.000Z</time>
      </trkpt>
      <trkpt lat="43.7255" lon="6.09097">
        <ele>467</ele>
        <time>2025-04-07T12:12:08.000Z</time>
      </trkpt>
      <trkpt lat="43.72528" lon="6.09087">
        <ele>466</ele>
        <time>2025-04-07T12:12:32.000Z</time>
      </trkpt>
      <trkpt lat="43.72506" lon="6.09077">
        <ele>464</ele>
        <time>2025-04-07T12:12:58.000Z</time>
      </trkpt>
      <trkpt lat="43.72485" lon="6.09068">
        <ele>462</ele>
        <time>2025-04-07T12:13:24.000Z</time>
      </trkpt>
      <trkpt lat="43.72466" lon="6.0905">
        <ele>460</ele>
        <time>2025-04-07T12:13:52.000Z</time>
      </trkpt>
      <trkpt lat="43.72447" lon="6.09035">
        <ele>458</ele>
        <time>2025-04-07T12:14:20.000Z</time>
      </trkpt>
      <trkpt lat="43.72435" lon="6.09009">
        <ele>457</ele>
        <time>2025-04-07T12:14:50.000Z</time>
      </trkpt>
      <trkpt lat="43.72422" lon="6.08985">
        <ele>456</ele>
        <time>2025-04-07T12:15:40.000Z</time>
      </trkpt>
      <trkpt lat="43.72401" lon="6.08983">
        <ele>455</ele>
        <time>2025-04-07T12:16:16.000Z</time>
      </trkpt>
      <trkpt lat="43.7238" lon="6.08977">
        <ele>455</ele>
        <time>2025-04-07T12:16:52.000Z</time>
      </trkpt>
      <trkpt lat="43.72371" lon="6.08951">
        <ele>454</ele>
        <time>2025-04-07T12:17:28.000Z</time>
      </trkpt>
      <trkpt lat="43.72373" lon="6.08921">
        <ele>454</ele>
        <time>2025-04-07T12:21:10.000Z</time>
      </trkpt>
      <trkpt lat="43.72382" lon="6.08891">
        <ele>452</ele>
        <time>2025-04-07T12:25:02.000Z</time>
      </trkpt>
      <trkpt lat="43.72387" lon="6.08858">
        <ele>452</ele>
        <time>2025-04-07T12:25:30.000Z</time>
      </trkpt>
      <trkpt lat="43.72391" lon="6.08826">
        <ele>451</ele>
        <time>2025-04-07T12:25:54.000Z</time>
      </trkpt>
      <trkpt lat="43.72403" lon="6.08798">
        <ele>450</ele>
        <time>2025-04-07T12:26:20.000Z</time>
      </trkpt>
      <trkpt lat="43.72415" lon="6.08771">
        <ele>450</ele>
        <time>2025-04-07T12:26:44.000Z</time>
      </trkpt>
      <trkpt lat="43.72431" lon="6.08747">
        <ele>450</ele>
        <time>2025-04-07T12:27:08.000Z</time>
      </trkpt>
      <trkpt lat="43.72447" lon="6.08726">
        <ele>451</ele>
        <time>2025-04-07T12:27:32.000Z</time>
      </trkpt>
      <trkpt lat="43.72463" lon="6.08704">
        <ele>451</ele>
        <time>2025-04-07T12:27:58.000Z</time>
      </trkpt>
      <trkpt lat="43.72467" lon="6.08674">
        <ele>452</ele>
        <time>2025-04-07T12:28:26.000Z</time>
      </trkpt>
      <trkpt lat="43.72462" lon="6.08643">
        <ele>451</ele>
        <time>2025-04-07T12:28:54.000Z</time>
      </trkpt>
      <trkpt lat="43.72463" lon="6.08612">
        <ele>450</ele>
        <time>2025-04-07T12:29:22.000Z</time>
      </trkpt>
      <trkpt lat="43.72471" lon="6.08584">
        <ele>450</ele>
        <time>2025-04-07T12:29:48.000Z</time>
      </trkpt>
      <trkpt lat="43.72483" lon="6.08556">
        <ele>450</ele>
        <time>2025-04-07T12:30:14.000Z</time>
      </trkpt>
      <trkpt lat="43.72497" lon="6.08532">
        <ele>450</ele>
        <time>2025-04-07T12:30:38.000Z</time>
      </trkpt>
      <trkpt lat="43.72513" lon="6.0851">
        <ele>449</ele>
        <time>2025-04-07T12:31:04.000Z</time>
      </trkpt>
      <trkpt lat="43.72529" lon="6.08487">
        <ele>449</ele>
        <time>2025-04-07T12:31:28.000Z</time>
      </trkpt>
      <trkpt lat="43.7254" lon="6.08459">
        <ele>450</ele>
        <time>2025-04-07T12:31:54.000Z</time>
      </trkpt>
      <trkpt lat="43.72544" lon="6.08429">
        <ele>450</ele>
        <time>2025-04-07T12:32:20.000Z</time>
      </trkpt>
      <trkpt lat="43.72546" lon="6.08397">
        <ele>449</ele>
        <time>2025-04-07T12:32:44.000Z</time>
      </trkpt>
      <trkpt lat="43.72544" lon="6.08366">
        <ele>449</ele>
        <time>2025-04-07T12:33:12.000Z</time>
      </trkpt>
      <trkpt lat="43.72536" lon="6.08336">
        <ele>449</ele>
        <time>2025-04-07T12:33:38.000Z</time>
      </trkpt>
      <trkpt lat="43.72521" lon="6.08313">
        <ele>448</ele>
        <time>2025-04-07T12:34:12.000Z</time>
      </trkpt>
      <trkpt lat="43.725" lon="6.08312">
        <ele>449</ele>
        <time>2025-04-07T12:34:38.000Z</time>
      </trkpt>
      <trkpt lat="43.72477" lon="6.08315">
        <ele>449</ele>
        <time>2025-04-07T12:35:10.000Z</time>
      </trkpt>
      <trkpt lat="43.72455" lon="6.08316">
        <ele>449</ele>
        <time>2025-04-07T12:35:36.000Z</time>
      </trkpt>
      <trkpt lat="43.72435" lon="6.08303">
        <ele>448</ele>
        <time>2025-04-07T12:36:04.000Z</time>
      </trkpt>
      <trkpt lat="43.72414" lon="6.08289">
        <ele>447</ele>
        <time>2025-04-07T12:37:12.000Z</time>
      </trkpt>
      <trkpt lat="43.72392" lon="6.08278">
        <ele>448</ele>
        <time>2025-04-07T12:37:50.000Z</time>
      </trkpt>
      <trkpt lat="43.7237" lon="6.08269">
        <ele>449</ele>
        <time>2025-04-07T12:38:12.000Z</time>
      </trkpt>
      <trkpt lat="43.72349" lon="6.08258">
        <ele>449</ele>
        <time>2025-04-07T12:38:36.000Z</time>
      </trkpt>
      <trkpt lat="43.72331" lon="6.08238">
        <ele>449</ele>
        <time>2025-04-07T12:39:00.000Z</time>
      </trkpt>
      <trkpt lat="43.72314" lon="6.08218">
        <ele>449</ele>
        <time>2025-04-07T12:39:26.000Z</time>
      </trkpt>
      <trkpt lat="43.72293" lon="6.08205">
        <ele>449</ele>
        <time>2025-04-07T12:39:52.000Z</time>
      </trkpt>
      <trkpt lat="43.72273" lon="6.08205">
        <ele>449</ele>
        <time>2025-04-07T12:40:24.000Z</time>
      </trkpt>
      <trkpt lat="43.72257" lon="6.08225">
        <ele>449</ele>
        <time>2025-04-07T12:40:50.000Z</time>
      </trkpt>
      <trkpt lat="43.72238" lon="6.08242">
        <ele>449</ele>
        <time>2025-04-07T12:41:18.000Z</time>
      </trkpt>
      <trkpt lat="43.72216" lon="6.0825">
        <ele>449</ele>
        <time>2025-04-07T12:41:42.000Z</time>
      </trkpt>
      <trkpt lat="43.72193" lon="6.08254">
        <ele>450</ele>
        <time>2025-04-07T12:42:08.000Z</time>
      </trkpt>
      <trkpt lat="43.72177" lon="6.08249">
        <ele>451</ele>
        <time>2025-04-07T12:43:34.000Z</time>
      </trkpt>
      <trkpt lat="43.72188" lon="6.08256">
        <ele>450</ele>
        <time>2025-04-07T12:44:54.000Z</time>
      </trkpt>
      <trkpt lat="43.72172" lon="6.08266">
        <ele>450</ele>
        <time>2025-04-07T12:49:24.000Z</time>
      </trkpt>
      <trkpt lat="43.72149" lon="6.08272">
        <ele>449</ele>
        <time>2025-04-07T12:50:50.000Z</time>
      </trkpt>
      <trkpt lat="43.72126" lon="6.08272">
        <ele>449</ele>
        <time>2025-04-07T12:51:16.000Z</time>
      </trkpt>
      <trkpt lat="43.72103" lon="6.08272">
        <ele>449</ele>
        <time>2025-04-07T12:51:42.000Z</time>
      </trkpt>
      <trkpt lat="43.72081" lon="6.08268">
        <ele>448</ele>
        <time>2025-04-07T12:52:10.000Z</time>
      </trkpt>
      <trkpt lat="43.72058" lon="6.08268">
        <ele>448</ele>
        <time>2025-04-07T12:52:38.000Z</time>
      </trkpt>
      <trkpt lat="43.72035" lon="6.08273">
        <ele>449</ele>
        <time>2025-04-07T12:53:02.000Z</time>
      </trkpt>
      <trkpt lat="43.72016" lon="6.08291">
        <ele>451</ele>
        <time>2025-04-07T12:53:34.000Z</time>
      </trkpt>
      <trkpt lat="43.71999" lon="6.08309">
        <ele>452</ele>
        <time>2025-04-07T12:54:00.000Z</time>
      </trkpt>
      <trkpt lat="43.71979" lon="6.08318">
        <ele>454</ele>
        <time>2025-04-07T12:54:46.000Z</time>
      </trkpt>
      <trkpt lat="43.71965" lon="6.08341">
        <ele>455</ele>
        <time>2025-04-07T12:55:38.000Z</time>
      </trkpt>
      <trkpt lat="43.71952" lon="6.08366">
        <ele>457</ele>
        <time>2025-04-07T12:56:14.000Z</time>
      </trkpt>
      <trkpt lat="43.71939" lon="6.08391">
        <ele>459</ele>
        <time>2025-04-07T12:57:10.000Z</time>
      </trkpt>
      <trkpt lat="43.71927" lon="6.08418">
        <ele>461</ele>
        <time>2025-04-07T12:58:02.000Z</time>
      </trkpt>
      <trkpt lat="43.71918" lon="6.08446">
        <ele>463</ele>
        <time>2025-04-07T12:58:58.000Z</time>
      </trkpt>
      <trkpt lat="43.71901" lon="6.08467">
        <ele>466</ele>
        <time>2025-04-07T12:59:46.000Z</time>
      </trkpt>
      <trkpt lat="43.7189" lon="6.08495">
        <ele>469</ele>
        <time>2025-04-07T13:01:00.000Z</time>
      </trkpt>
      <trkpt lat="43.71879" lon="6.08521">
        <ele>473</ele>
        <time>2025-04-07T13:02:58.000Z</time>
      </trkpt>
      <trkpt lat="43.71864" lon="6.08544">
        <ele>474</ele>
        <time>2025-04-07T13:03:38.000Z</time>
      </trkpt>
      <trkpt lat="43.7186" lon="6.08573">
        <ele>474</ele>
        <time>2025-04-07T13:05:02.000Z</time>
      </trkpt>
      <trkpt lat="43.71862" lon="6.08604">
        <ele>473</ele>
        <time>2025-04-07T13:05:30.000Z</time>
      </trkpt>
      <trkpt lat="43.71861" lon="6.08634">
        <ele>470</ele>
        <time>2025-04-07T13:06:00.000Z</time>
      </trkpt>
      <trkpt lat="43.71842" lon="6.08649">
        <ele>469</ele>
        <time>2025-04-07T13:08:10.000Z</time>
      </trkpt>
      <trkpt lat="43.71819" lon="6.0865">
        <ele>468</ele>
        <time>2025-04-07T13:08:34.000Z</time>
      </trkpt>
      <trkpt lat="43.71797" lon="6.08659">
        <ele>466</ele>
        <time>2025-04-07T13:09:10.000Z</time>
      </trkpt>
      <trkpt lat="43.71779" lon="6.08677">
        <ele>466</ele>
        <time>2025-04-07T13:09:38.000Z</time>
      </trkpt>
      <trkpt lat="43.71761" lon="6.08697">
        <ele>465</ele>
        <time>2025-04-07T13:10:00.000Z</time>
      </trkpt>
      <trkpt lat="43.71744" lon="6.08718">
        <ele>466</ele>
        <time>2025-04-07T13:10:22.000Z</time>
      </trkpt>
      <trkpt lat="43.71729" lon="6.08741">
        <ele>465</ele>
        <time>2025-04-07T13:10:44.000Z</time>
      </trkpt>
      <trkpt lat="43.71712" lon="6.08763">
        <ele>463</ele>
        <time>2025-04-07T13:11:06.000Z</time>
      </trkpt>
      <trkpt lat="43.71693" lon="6.08783">
        <ele>464</ele>
        <time>2025-04-07T13:14:04.000Z</time>
      </trkpt>
      <trkpt lat="43.71707" lon="6.08807">
        <ele>470</ele>
        <time>2025-04-07T13:14:46.000Z</time>
      </trkpt>
    </trkseg>
  </trk>
</gpx>